Time;durP1;ratioP1;P1;durP2;ratioP2;P2;SDS_P1;SDS_P2;PMS_P1;PMS_P2;Temp;Humidity;BMP_temperature;BMP_pressure;BME280_temperature;BME280_humidity;BME280_pressure;Samples;Min_cycle;Max_cycle;Signal;HPM_P1;HPM_P2
2024/02/25 00:00:04;;;;;;;28.97;19.93;;;;;;;11.22;66.77;93450.78;520148;28;1153;-70
2024/02/25 00:00:19;;;;;;;28.10;20.10;;;;;;;11.24;66.81;93456.53;521111;28;886;-69
2024/02/25 00:00:35;;;;;;;26.83;20.40;;;;;;;11.25;67.00;93452.47;521281;28;930;-69
2024/02/25 00:00:50;;;;;;;25.70;19.60;;;;;;;11.26;67.10;93456.72;521503;28;877;-70
2024/02/25 00:01:08;;;;;;;27.50;19.53;;;;;;;11.27;67.03;93452.66;521025;28;1687;-69
2024/02/25 00:01:23;;;;;;;27.98;20.60;;;;;;;11.28;67.19;93448.59;520444;28;1911;-70
2024/02/25 00:01:38;;;;;;;28.93;21.17;;;;;;;11.28;67.11;93449.31;519402;28;997;-70
2024/02/25 00:01:54;;;;;;;30.95;20.88;;;;;;;11.28;66.88;93446.56;519433;28;869;-70
2024/02/25 00:02:09;;;;;;;28.00;20.33;;;;;;;11.29;67.09;93450.81;519800;28;838;-69
2024/02/25 00:02:25;;;;;;;25.52;20.40;;;;;;;11.30;66.99;93454.31;519376;28;854;-70
2024/02/25 00:02:44;;;;;;;28.47;20.37;;;;;;;11.30;67.33;93452.25;519497;28;802;-70
2024/02/25 00:02:59;;;;;;;26.88;20.20;;;;;;;11.31;67.13;93448.22;519372;28;814;-70
2024/02/25 00:03:14;;;;;;;24.50;19.83;;;;;;;11.32;66.88;93452.47;520257;28;1068;-70
2024/02/25 00:03:30;;;;;;;25.27;19.77;;;;;;;11.33;66.95;93447.66;519386;28;833;-70
2024/02/25 00:03:45;;;;;;;26.03;19.77;;;;;;;11.35;66.83;93447.84;519419;28;814;-70
2024/02/25 00:04:01;;;;;;;26.20;19.73;;;;;;;11.35;67.04;93447.84;519433;28;908;-69
2024/02/25 00:04:16;;;;;;;26.77;19.83;;;;;;;11.34;66.56;93449.91;521006;28;822;-70
2024/02/25 00:04:32;;;;;;;26.40;20.30;;;;;;;11.33;66.66;93442.13;520629;28;1684;-70
2024/02/25 00:04:47;;;;;;;25.47;20.17;;;;;;;11.32;66.66;93444.19;520660;28;857;-69
2024/02/25 00:05:03;;;;;;;26.77;19.70;;;;;;;11.33;66.56;93442.13;519962;28;958;-69
2024/02/25 00:05:19;;;;;;;25.75;19.55;;;;;;;11.33;66.56;93444.91;521419;28;877;-70
2024/02/25 00:05:34;;;;;;;24.85;19.20;;;;;;;11.33;66.15;93447.66;520336;28;841;-69
2024/02/25 00:05:49;;;;;;;24.33;19.13;;;;;;;11.32;66.14;93443.44;519491;28;794;-69
2024/02/25 00:06:05;;;;;;;24.52;19.08;;;;;;;11.25;66.42;93447.69;519457;28;826;-69
2024/02/25 00:06:20;;;;;;;24.00;17.73;;;;;;;11.24;66.30;93445.47;521433;28;908;-70
2024/02/25 00:06:36;;;;;;;22.70;16.90;;;;;;;11.23;66.66;93441.97;520497;28;1191;-70
2024/02/25 00:06:52;;;;;;;21.60;16.88;;;;;;;11.21;66.72;93444.56;519518;28;920;-70
2024/02/25 00:07:07;;;;;;;20.67;16.35;;;;;;;11.20;66.44;93442.31;519789;28;794;-70
2024/02/25 00:07:23;;;;;;;19.57;16.37;;;;;;;11.20;66.69;93443.06;521618;28;778;-69
2024/02/25 00:07:38;;;;;;;18.83;15.90;;;;;;;11.20;66.61;93442.31;521452;28;838;-69
2024/02/25 00:07:54;;;;;;;19.27;15.43;;;;;;;11.22;66.67;93443.25;521408;28;849;-70
2024/02/25 00:08:09;;;;;;;19.77;15.60;;;;;;;11.22;66.93;93450.78;521269;28;1153;-70
2024/02/25 00:08:25;;;;;;;18.93;15.13;;;;;;;11.23;66.89;93441.22;521450;28;876;-70
2024/02/25 00:08:40;;;;;;;18.00;14.77;;;;;;;11.24;66.72;93448.97;521489;28;881;-70
2024/02/25 00:08:56;;;;;;;17.73;15.17;;;;;;;11.25;66.77;93444.91;519907;28;1793;-70
2024/02/25 00:09:12;;;;;;;17.63;15.02;;;;;;;11.27;66.61;93444.34;521346;28;778;-70
2024/02/25 00:09:27;;;;;;;18.23;15.18;;;;;;;11.28;66.70;93440.31;519469;28;834;-70
2024/02/25 00:09:43;;;;;;;18.10;15.03;;;;;;;11.30;66.59;93449.50;519837;28;1057;-70
2024/02/25 00:09:58;;;;;;;19.25;15.73;;;;;;;11.30;66.51;93446.03;519638;28;754;-70
2024/02/25 00:10:14;;;;;;;21.00;16.67;;;;;;;11.31;66.54;93444.72;520636;28;763;-70
2024/02/25 00:10:29;;;;;;;21.02;16.40;;;;;;;11.32;66.64;93451.72;521472;28;802;-70
2024/02/25 00:10:45;;;;;;;20.83;15.90;;;;;;;11.32;66.47;93444.19;521457;28;849;-70
2024/02/25 00:11:00;;;;;;;19.38;15.52;;;;;;;11.34;66.46;93449.91;519931;28;920;-70
2024/02/25 00:11:16;;;;;;;18.90;15.90;;;;;;;11.23;66.59;93432.94;520878;28;813;-70
2024/02/25 00:11:32;;;;;;;20.60;16.30;;;;;;;11.35;66.24;93445.81;521435;28;1170;-70
2024/02/25 00:11:48;;;;;;;19.60;15.95;;;;;;;11.36;66.64;93450.06;521333;28;842;-70
2024/02/25 00:12:04;;;;;;;18.70;15.38;;;;;;;11.37;66.59;93445.25;521475;28;879;-70
2024/02/25 00:12:19;;;;;;;19.33;15.37;;;;;;;11.36;66.37;93449.31;520770;28;1532;-70
2024/02/25 00:12:35;;;;;;;19.98;15.75;;;;;;;11.36;66.23;93449.31;519854;28;802;-70
2024/02/25 00:12:50;;;;;;;19.63;15.93;;;;;;;11.37;66.25;93451.53;520937;28;833;-70
2024/02/25 00:13:06;;;;;;;19.58;16.00;;;;;;;11.37;66.21;93448.78;521084;28;882;-70
2024/02/25 00:13:22;;;;;;;21.48;16.05;;;;;;;11.37;66.16;93451.53;520919;28;862;-70
2024/02/25 00:13:38;;;;;;;21.93;16.57;;;;;;;11.39;65.96;93453.75;521414;28;917;-70
2024/02/25 00:13:53;;;;;;;21.23;16.83;;;;;;;11.38;66.17;93446.75;521470;28;849;-70
2024/02/25 00:14:09;;;;;;;20.73;16.48;;;;;;;11.38;66.34;93449.50;521400;28;802;-70
2024/02/25 00:14:28;;;;;;;19.70;16.03;;;;;;;11.38;66.13;93446.75;520112;28;798;-70
2024/02/25 00:14:44;;;;;;;17.83;14.43;;;;;;;11.36;66.06;93452.09;520811;28;1006;-70
2024/02/25 00:14:59;;;;;;;17.30;13.13;;;;;;;11.35;65.94;93451.34;520117;28;1703;-70
2024/02/25 00:15:15;;;;;;;17.42;13.43;;;;;;;11.31;66.09;93445.47;520754;28;936;-70
2024/02/25 00:15:30;;;;;;;19.27;15.27;;;;;;;11.28;66.23;93443.06;519703;28;770;-70
2024/02/25 00:15:46;;;;;;;20.77;15.93;;;;;;;11.26;66.41;93449.13;519085;28;921;-70
2024/02/25 00:16:01;;;;;;;19.93;16.03;;;;;;;11.22;66.18;93448.78;519146;28;786;-70
2024/02/25 00:16:16;;;;;;;19.80;15.88;;;;;;;11.17;66.38;93446.22;520737;28;925;-70
2024/02/25 00:16:34;;;;;;;19.70;15.40;;;;;;;11.14;66.63;93459.09;521412;28;922;-70
2024/02/25 00:16:50;;;;;;;22.98;16.63;;;;;;;11.14;66.59;93452.81;521305;28;814;-70
2024/02/25 00:17:05;;;;;;;26.83;18.53;;;;;;;11.13;66.29;93445.84;519890;28;869;-70
2024/02/25 00:17:21;;;;;;;27.77;20.13;;;;;;;11.12;66.65;93447.88;521277;28;889;-70
2024/02/25 00:17:36;;;;;;;26.57;19.83;;;;;;;11.11;66.63;93448.41;520406;28;1758;-70
2024/02/25 00:17:52;;;;;;;24.40;18.08;;;;;;;11.12;66.53;93460.94;519881;28;961;-70
2024/02/25 00:18:07;;;;;;;24.20;17.53;;;;;;;11.09;66.40;93456.50;519456;28;1111;-70
2024/02/25 00:18:23;;;;;;;23.45;17.23;;;;;;;11.09;66.87;93453.75;521168;28;846;-70
2024/02/25 00:18:38;;;;;;;23.33;17.43;;;;;;;11.08;66.94;93455.78;520175;28;813;-70
2024/02/25 00:18:54;;;;;;;21.55;16.67;;;;;;;11.09;66.68;93456.50;519237;28;759;-72
2024/02/25 00:19:09;;;;;;;20.47;16.30;;;;;;;11.09;66.57;93445.44;519854;28;786;-70
2024/02/25 00:19:26;;;;;;;21.48;16.67;;;;;;;11.10;66.44;93452.47;521453;28;770;-70
2024/02/25 00:19:42;;;;;;;22.10;16.60;;;;;;;11.10;66.77;93455.22;520426;28;1017;-70
2024/02/25 00:19:57;;;;;;;22.23;16.20;;;;;;;11.10;66.89;93452.47;519281;28;818;-70
2024/02/25 00:20:13;;;;;;;22.63;16.40;;;;;;;11.10;66.86;93444.16;520550;28;948;-70
2024/02/25 00:20:30;;;;;;;23.60;17.00;;;;;;;11.11;66.92;93448.41;521464;28;782;-70
2024/02/25 00:20:46;;;;;;;23.42;16.60;;;;;;;11.13;66.91;93451.38;521472;28;943;-70
2024/02/25 00:21:01;;;;;;;21.48;15.93;;;;;;;11.14;66.79;93447.31;519918;28;1715;-70
2024/02/25 00:21:17;;;;;;;21.40;15.95;;;;;;;11.01;67.03;93425.38;519399;28;1965;-70
2024/02/25 00:21:32;;;;;;;22.50;16.70;;;;;;;11.16;66.79;93447.47;519324;28;924;-70
2024/02/25 00:21:48;;;;;;;22.67;16.50;;;;;;;11.17;66.67;93446.22;519400;28;826;-70
2024/02/25 00:22:03;;;;;;;19.80;14.80;;;;;;;11.16;66.80;93445.47;521028;28;862;-70
2024/02/25 00:22:19;;;;;;;19.00;14.73;;;;;;;11.17;66.78;93446.22;521434;28;865;-70
2024/02/25 00:22:34;;;;;;;20.23;15.47;;;;;;;11.17;66.57;93443.44;521436;28;924;-70
2024/02/25 00:22:50;;;;;;;21.23;16.03;;;;;;;11.17;66.72;93443.44;521268;28;1143;-70
2024/02/25 00:23:06;;;;;;;23.50;16.35;;;;;;;11.18;66.50;93445.66;520076;28;908;-70
2024/02/25 00:23:21;;;;;;;22.63;16.40;;;;;;;11.18;66.91;93442.13;521449;28;940;-70
2024/02/25 00:23:37;;;;;;;20.55;16.42;;;;;;;11.20;66.76;93443.06;520526;28;1711;-70
2024/02/25 00:23:52;;;;;;;20.73;16.17;;;;;;;11.20;66.55;93439.56;520654;28;878;-70
2024/02/25 00:24:08;;;;;;;21.30;16.20;;;;;;;11.20;66.67;93436.78;520440;28;770;-70
2024/02/25 00:24:24;;;;;;;22.25;16.40;;;;;;;11.22;66.78;93445.28;521060;28;1037;-70
2024/02/25 00:24:39;;;;;;;24.13;16.52;;;;;;;11.22;66.69;93439.75;520153;28;774;-70
2024/02/25 00:24:55;;;;;;;28.50;17.57;;;;;;;11.22;66.41;93434.97;519223;28;928;-70
2024/02/25 00:25:10;;;;;;;27.48;17.85;;;;;;;11.23;66.52;93435.69;520017;28;880;-70
2024/02/25 00:25:25;;;;;;;26.50;17.20;;;;;;;11.17;66.44;93429.63;521337;28;845;-70
2024/02/25 00:25:41;;;;;;;28.35;16.65;;;;;;;11.22;66.21;93432.19;520386;28;873;-70
2024/02/25 00:25:57;;;;;;;24.73;16.53;;;;;;;11.24;66.35;93437.91;519105;28;928;-70
2024/02/25 00:26:12;;;;;;;20.35;16.15;;;;;;;11.25;66.31;93435.88;521128;28;1044;-70
2024/02/25 00:26:28;;;;;;;18.90;15.10;;;;;;;11.23;66.01;93433.69;521230;28;990;-70
2024/02/25 00:26:43;;;;;;;19.88;14.75;;;;;;;11.24;66.14;93434.44;521296;28;797;-70
2024/02/25 00:26:59;;;;;;;20.07;14.67;;;;;;;11.23;65.86;93435.69;521242;28;802;-70
2024/02/25 00:27:14;;;;;;;17.85;13.38;;;;;;;11.24;65.96;93437.19;528469;28;2766;-70
2024/02/25 00:27:30;;;;;;;15.97;12.80;;;;;;;11.23;65.94;93436.44;528608;27;865;-70
2024/02/25 00:27:45;;;;;;;15.90;12.88;;;;;;;11.23;66.02;93438.47;528575;27;1068;-70
2024/02/25 00:28:01;;;;;;;19.63;14.70;;;;;;;11.22;65.95;93434.97;527664;28;829;-70
2024/02/25 00:28:17;;;;;;;22.95;16.10;;;;;;;11.21;65.79;93433.50;527784;28;901;-70
2024/02/25 00:28:32;;;;;;;24.08;16.05;;;;;;;11.21;65.79;93438.28;527763;28;778;-70
2024/02/25 00:28:48;;;;;;;24.37;16.70;;;;;;;11.20;66.16;93431.25;527637;28;1041;-70
2024/02/25 00:29:03;;;;;;;23.80;17.53;;;;;;;11.19;65.77;93438.09;526024;28;884;-70
2024/02/25 00:29:18;;;;;;;24.90;18.48;;;;;;;11.19;66.02;93435.34;520401;28;1049;-70
2024/02/25 00:29:34;;;;;;;27.97;19.20;;;;;;;11.18;66.42;93437.34;519213;28;791;-70
2024/02/25 00:29:49;;;;;;;29.13;20.10;;;;;;;11.19;66.28;93436.09;519109;28;794;-70
2024/02/25 00:30:07;;;;;;;26.47;18.83;;;;;;;11.18;66.49;93436.63;519270;28;794;-71
2024/02/25 00:30:22;;;;;;;24.15;17.15;;;;;;;11.19;66.12;93436.09;519333;28;925;-70
2024/02/25 00:30:37;;;;;;;25.25;17.10;;;;;;;11.21;66.30;93439.03;519177;28;774;-70
2024/02/25 00:30:53;;;;;;;26.10;17.17;;;;;;;11.21;66.23;93438.28;519875;28;1014;-70
2024/02/25 00:31:08;;;;;;;23.50;16.67;;;;;;;11.20;66.41;93437.53;520449;28;1793;-70
2024/02/25 00:31:24;;;;;;;21.30;15.60;;;;;;;11.21;66.69;93436.25;519728;28;794;-70
2024/02/25 00:31:40;;;;;;;22.85;15.52;;;;;;;11.21;66.52;93435.53;520682;28;805;-70
2024/02/25 00:31:55;;;;;;;23.20;16.17;;;;;;;11.20;66.89;93436.78;519160;28;810;-70
2024/02/25 00:32:12;;;;;;;21.20;16.10;;;;;;;11.20;66.63;93434.03;519628;28;842;-70
2024/02/25 00:32:27;;;;;;;20.45;14.90;;;;;;;11.19;66.57;93433.31;518978;28;1076;-70
2024/02/25 00:32:43;;;;;;;18.45;13.90;;;;;;;11.21;66.75;93435.53;519209;28;782;-70
2024/02/25 00:32:58;;;;;;;17.67;13.77;;;;;;;11.20;66.89;93428.50;519249;28;861;-70
2024/02/25 00:33:14;;;;;;;19.50;14.07;;;;;;;11.19;66.84;93435.34;520141;28;881;-70
2024/02/25 00:33:29;;;;;;;19.70;14.33;;;;;;;11.21;66.69;93438.28;519162;28;774;-70
2024/02/25 00:33:46;;;;;;;18.50;14.23;;;;;;;11.19;66.74;93433.31;519135;28;857;-70
2024/02/25 00:34:01;;;;;;;18.15;13.63;;;;;;;11.20;66.81;93434.03;519246;28;861;-70
2024/02/25 00:34:17;;;;;;;16.07;13.00;;;;;;;11.18;66.58;93426.31;519536;28;1239;-70
2024/02/25 00:34:32;;;;;;;15.40;12.80;;;;;;;11.19;66.33;93429.81;519735;28;1719;-70
2024/02/25 00:34:48;;;;;;;17.60;12.85;;;;;;;11.17;66.51;93435.91;520762;28;858;-70
2024/02/25 00:35:04;;;;;;;18.53;12.90;;;;;;;11.15;66.42;93437.75;519732;28;916;-70
2024/02/25 00:35:19;;;;;;;17.70;13.02;;;;;;;11.12;66.25;93441.59;521049;28;964;-71
2024/02/25 00:35:34;;;;;;;18.13;13.00;;;;;;;11.08;66.38;93436.44;519828;28;813;-70
2024/02/25 00:35:50;;;;;;;18.87;13.17;;;;;;;11.06;66.26;93433.50;520149;28;918;-70
2024/02/25 00:36:07;;;;;;;17.90;13.30;;;;;;;11.05;66.21;93434.03;521258;28;798;-71
2024/02/25 00:36:23;;;;;;;17.90;13.30;;;;;;;11.04;66.47;93435.34;519311;28;861;-70
2024/02/25 00:36:39;;;;;;;18.40;13.23;;;;;;;11.03;66.47;93439.38;520503;28;869;-70
2024/02/25 00:36:54;;;;;;;19.73;13.87;;;;;;;11.03;66.60;93433.84;521278;28;790;-70
2024/02/25 00:37:09;;;;;;;21.30;14.50;;;;;;;11.03;66.44;93437.34;520818;28;1647;-70
2024/02/25 00:37:25;;;;;;;19.30;13.70;;;;;;;11.03;66.38;93428.31;520140;28;903;-71
2024/02/25 00:37:41;;;;;;;17.50;13.07;;;;;;;11.03;66.36;93442.88;519166;28;806;-71
2024/02/25 00:37:57;;;;;;;16.10;13.15;;;;;;;11.03;66.37;93447.66;519336;28;829;-70
2024/02/25 00:38:12;;;;;;;16.57;12.97;;;;;;;10.99;66.43;93442.50;520093;28;850;-70
2024/02/25 00:38:28;;;;;;;18.13;14.02;;;;;;;11.00;66.51;93446.03;519115;28;1102;-70
2024/02/25 00:38:43;;;;;;;19.37;14.87;;;;;;;10.99;66.70;93439.00;519245;28;809;-70
2024/02/25 00:39:01;;;;;;;19.55;14.52;;;;;;;11.00;66.70;93446.75;519284;28;1005;-70
2024/02/25 00:39:21;;;;;;;22.10;16.38;;;;;;;11.01;66.57;93447.47;520948;28;829;-70
2024/02/25 00:39:36;;;;;;;20.92;16.20;;;;;;;11.00;66.19;93438.44;519275;28;841;-70
2024/02/25 00:39:51;;;;;;;21.13;16.93;;;;;;;11.02;66.55;93443.44;519445;28;778;-70
2024/02/25 00:40:08;;;;;;;21.92;16.98;;;;;;;11.03;66.56;93444.91;519695;28;825;-70
2024/02/25 00:40:24;;;;;;;21.67;16.05;;;;;;;11.03;66.54;93442.13;521358;28;877;-70
2024/02/25 00:40:40;;;;;;;21.00;15.67;;;;;;;11.04;66.20;93438.09;521331;28;1004;-70
2024/02/25 00:40:55;;;;;;;19.55;14.20;;;;;;;11.02;66.49;93438.63;520467;28;1703;-70
2024/02/25 00:41:11;;;;;;;20.67;14.63;;;;;;;11.03;66.35;93442.13;520645;28;802;-70
2024/02/25 00:41:27;;;;;;;20.75;15.80;;;;;;;11.03;66.29;93442.13;520143;28;1055;-70
2024/02/25 00:41:43;;;;;;;18.85;15.07;;;;;;;10.98;66.29;93441.03;519474;28;826;-70
2024/02/25 00:42:01;;;;;;;20.40;15.32;;;;;;;11.02;66.20;93441.41;519362;28;1071;-70
2024/02/25 00:42:17;;;;;;;22.30;17.58;;;;;;;11.04;66.37;93438.09;520805;28;988;-70
2024/02/25 00:42:32;;;;;;;25.85;20.23;;;;;;;11.04;66.20;93443.63;521523;28;885;-70
2024/02/25 00:42:48;;;;;;;29.93;21.97;;;;;;;11.02;66.14;93443.44;521430;28;882;-70
2024/02/25 00:43:03;;;;;;;29.38;21.58;;;;;;;11.04;66.37;93447.13;520028;28;889;-70
2024/02/25 00:43:19;;;;;;;26.47;19.37;;;;;;;11.02;66.21;93444.16;521365;28;755;-70
2024/02/25 00:43:34;;;;;;;25.35;18.73;;;;;;;11.02;66.43;93443.44;520493;28;1675;-70
2024/02/25 00:43:49;;;;;;;26.37;19.87;;;;;;;11.02;66.39;93444.16;520420;28;1021;-70
2024/02/25 00:44:05;;;;;;;27.55;20.40;;;;;;;11.03;66.56;93450.44;520358;28;886;-70
2024/02/25 00:44:20;;;;;;;29.00;20.87;;;;;;;11.04;66.49;93449.16;521410;28;990;-70
2024/02/25 00:44:38;;;;;;;28.43;20.67;;;;;;;11.04;66.35;93443.63;518984;28;1316;-70
2024/02/25 00:44:53;;;;;;;26.30;20.10;;;;;;;11.03;66.37;93447.66;518898;28;909;-70
2024/02/25 00:45:09;;;;;;;24.83;19.73;;;;;;;11.03;66.15;93450.44;518732;28;854;-70
2024/02/25 00:45:24;;;;;;;26.15;19.58;;;;;;;11.02;66.25;93449.69;519069;28;869;-70
2024/02/25 00:45:40;;;;;;;26.73;18.80;;;;;;;11.02;66.27;93449.69;517942;28;1104;-70
2024/02/25 00:45:55;;;;;;;24.60;18.25;;;;;;;10.99;66.40;93447.28;519029;28;877;-70
2024/02/25 00:46:11;;;;;;;23.60;17.67;;;;;;;10.94;66.67;93448.94;518705;28;1621;-70
2024/02/25 00:46:27;;;;;;;23.00;16.67;;;;;;;10.87;66.79;93446.19;518912;28;869;-70
2024/02/25 00:46:43;;;;;;;20.20;15.65;;;;;;;10.81;67.05;93451.13;519993;28;826;-70
2024/02/25 00:46:58;;;;;;;18.70;14.67;;;;;;;10.75;67.04;93451.31;521419;28;812;-70
2024/02/25 00:47:14;;;;;;;18.80;14.93;;;;;;;10.69;67.49;93445.25;520445;28;1249;-70
2024/02/25 00:47:30;;;;;;;20.00;15.32;;;;;;;10.50;67.76;93429.00;519371;28;975;-70
2024/02/25 00:47:45;;;;;;;20.98;15.07;;;;;;;10.55;68.31;93455.69;519281;28;834;-70
2024/02/25 00:48:01;;;;;;;19.33;14.33;;;;;;;10.51;68.01;93452.56;519401;28;829;-70
2024/02/25 00:48:16;;;;;;;15.43;13.03;;;;;;;10.49;68.43;93444.09;520466;28;925;-70
2024/02/25 00:48:32;;;;;;;14.50;12.10;;;;;;;10.49;68.42;93449.63;519295;28;1300;-70
2024/02/25 00:48:47;;;;;;;15.70;11.43;;;;;;;10.46;68.55;93447.94;520038;28;1140;-70
2024/02/25 00:49:02;;;;;;;14.57;10.50;;;;;;;10.41;68.08;93454.38;521461;28;956;-70
2024/02/25 00:49:18;;;;;;;15.77;10.33;;;;;;;10.40;68.28;93452.16;521329;28;781;-70
2024/02/25 00:49:33;;;;;;;18.92;12.02;;;;;;;10.37;68.32;93450.50;521512;28;858;-70
2024/02/25 00:49:49;;;;;;;20.23;14.53;;;;;;;10.35;68.82;93447.56;521434;28;857;-70
2024/02/25 00:50:05;;;;;;;19.67;14.35;;;;;;;10.25;68.63;93433.53;520604;28;1718;-70
2024/02/25 00:50:21;;;;;;;15.75;12.00;;;;;;;10.35;68.77;93456.53;520577;28;990;-70
2024/02/25 00:50:36;;;;;;;13.50;11.07;;;;;;;10.33;69.15;93456.34;520017;28;850;-70
2024/02/25 00:50:52;;;;;;;14.35;10.80;;;;;;;10.32;68.83;93452.13;519479;28;834;-70
2024/02/25 00:51:07;;;;;;;15.17;11.00;;;;;;;10.33;68.75;93448.06;519640;28;834;-70
2024/02/25 00:51:23;;;;;;;14.63;11.13;;;;;;;10.33;68.93;93450.84;521517;28;834;-70
2024/02/25 00:51:39;;;;;;;15.43;11.67;;;;;;;10.36;69.15;93449.75;521271;28;932;-70
2024/02/25 00:51:54;;;;;;;16.13;12.52;;;;;;;10.38;68.86;93457.47;521247;28;1239;-70
2024/02/25 00:52:10;;;;;;;18.63;14.00;;;;;;;10.39;68.96;93450.69;521301;28;893;-70
2024/02/25 00:52:26;;;;;;;21.33;15.63;;;;;;;10.42;68.64;93455.09;521362;28;932;-70
2024/02/25 00:52:41;;;;;;;23.80;17.38;;;;;;;10.41;68.69;93457.13;521443;28;790;-70
2024/02/25 00:52:57;;;;;;;27.00;18.83;;;;;;;10.39;68.86;93451.44;521379;28;774;-70
2024/02/25 00:53:14;;;;;;;29.03;19.20;;;;;;;10.40;68.89;93450.13;519953;28;1758;-70
2024/02/25 00:53:29;;;;;;;29.38;19.60;;;;;;;10.41;68.92;93454.38;519292;28;897;-70
2024/02/25 00:53:45;;;;;;;26.33;18.60;;;;;;;10.41;68.85;93453.63;519289;28;1247;-70
2024/02/25 00:54:00;;;;;;;22.37;16.27;;;;;;;10.43;69.11;93453.81;519400;28;837;-70
2024/02/25 00:54:18;;;;;;;25.25;16.25;;;;;;;10.40;69.02;93458.41;520867;28;862;-70
2024/02/25 00:54:33;;;;;;;25.65;16.02;;;;;;;10.35;69.06;93453.06;521461;28;893;-70
2024/02/25 00:54:48;;;;;;;20.05;14.10;;;;;;;10.29;69.05;93444.94;521385;28;794;-70
2024/02/25 00:55:04;;;;;;;19.50;14.03;;;;;;;10.25;69.33;93452.84;521394;28;838;-70
2024/02/25 00:55:20;;;;;;;20.20;14.13;;;;;;;10.19;69.83;93446.00;519195;28;1020;-70
2024/02/25 00:55:35;;;;;;;18.13;12.47;;;;;;;10.14;70.21;93446.91;519328;28;873;-70
2024/02/25 00:55:51;;;;;;;15.60;10.98;;;;;;;10.07;70.22;93458.63;519746;28;1529;-70
2024/02/25 00:56:06;;;;;;;16.47;11.87;;;;;;;10.07;70.50;93451.06;520728;28;869;-71
2024/02/25 00:56:22;;;;;;;15.23;11.40;;;;;;;10.08;70.14;93454.56;520902;28;889;-70
2024/02/25 00:56:37;;;;;;;12.00;9.27;;;;;;;10.10;70.28;93452.75;521399;28;837;-70
2024/02/25 00:56:54;;;;;;;10.52;8.15;;;;;;;10.13;70.06;93456.47;521109;28;938;-70
2024/02/25 00:57:10;;;;;;;9.35;7.60;;;;;;;10.15;70.27;93445.63;521378;28;1109;-70
2024/02/25 00:57:26;;;;;;;9.70;7.63;;;;;;;9.98;69.83;93424.03;521334;28;810;-70
2024/02/25 00:57:41;;;;;;;11.75;7.80;;;;;;;10.19;70.16;93446.75;521444;28;826;-70
2024/02/25 00:57:56;;;;;;;10.33;7.27;;;;;;;10.23;69.92;93444.38;519987;28;910;-70
2024/02/25 00:58:12;;;;;;;8.55;7.00;;;;;;;10.26;69.81;93443.28;520432;28;829;-70
2024/02/25 00:58:28;;;;;;;8.77;7.20;;;;;;;10.27;69.54;93444.75;520132;28;1691;-70
2024/02/25 00:58:43;;;;;;;8.73;7.18;;;;;;;10.27;69.63;93439.22;520335;28;802;-70
2024/02/25 00:58:58;;;;;;;8.27;7.10;;;;;;;10.27;69.73;93447.50;520264;28;838;-70
2024/02/25 00:59:14;;;;;;;11.93;7.32;;;;;;;10.24;70.27;93448.63;520707;28;829;-70
2024/02/25 00:59:30;;;;;;;12.85;7.40;;;;;;;10.23;70.14;93444.38;520448;28;853;-70
2024/02/25 00:59:45;;;;;;;9.50;7.53;;;;;;;10.16;70.14;93434.03;519375;28;767;-70
2024/02/25 01:00:01;;;;;;;9.25;7.63;;;;;;;10.23;69.88;93441.63;519369;28;1006;-70
2024/02/25 01:00:19;;;;;;;10.50;7.80;;;;;;;10.22;70.16;93447.69;521243;28;825;-70
2024/02/25 01:00:34;;;;;;;10.30;7.97;;;;;;;10.20;70.46;93444.75;520399;28;904;-70
2024/02/25 01:00:50;;;;;;;8.80;7.87;;;;;;;10.18;70.25;93442.50;519349;28;798;-70
2024/02/25 01:01:05;;;;;;;8.65;7.70;;;;;;;10.20;70.07;93441.97;519047;28;1746;-70
2024/02/25 01:01:21;;;;;;;8.10;7.30;;;;;;;10.20;70.02;93444.75;519409;28;1980;-70
2024/02/25 01:01:36;;;;;;;8.15;7.30;;;;;;;10.22;70.17;93442.88;521121;28;854;-70
2024/02/25 01:01:52;;;;;;;8.33;7.00;;;;;;;10.24;70.06;93439.59;521182;28;1246;-70
2024/02/25 01:02:08;;;;;;;8.80;7.20;;;;;;;10.27;69.99;93447.50;521298;28;778;-70
2024/02/25 01:02:24;;;;;;;8.65;7.20;;;;;;;10.28;69.89;93443.47;519435;28;778;-70
2024/02/25 01:02:40;;;;;;;9.30;7.05;;;;;;;10.28;70.16;93435.22;519420;28;833;-70
2024/02/25 01:02:55;;;;;;;10.48;7.25;;;;;;;10.31;69.91;93441.66;519474;28;880;-70
2024/02/25 01:03:11;;;;;;;10.70;7.97;;;;;;;10.32;70.04;93440.34;520145;28;1079;-70
2024/02/25 01:03:26;;;;;;;10.50;7.90;;;;;;;10.33;69.76;93445.31;520794;28;915;-70
2024/02/25 01:03:42;;;;;;;9.55;7.70;;;;;;;10.35;69.81;93442.75;519230;28;771;-70
2024/02/25 01:03:58;;;;;;;9.30;7.53;;;;;;;10.37;69.93;93447.75;517568;28;1942;-70
2024/02/25 01:04:14;;;;;;;10.77;7.93;;;;;;;10.39;69.90;93442.41;518925;28;814;-69
2024/02/25 01:04:29;;;;;;;12.52;8.90;;;;;;;10.40;69.58;93447.38;517347;28;846;-69
2024/02/25 01:04:44;;;;;;;12.13;9.30;;;;;;;10.40;69.58;93441.84;517176;28;774;-70
2024/02/25 01:05:01;;;;;;;10.98;9.23;;;;;;;10.40;69.69;93446.63;517969;28;969;-69
2024/02/25 01:05:16;;;;;;;11.85;9.60;;;;;;;10.41;69.42;93448.13;519113;28;902;-70
2024/02/25 01:05:32;;;;;;;11.83;9.50;;;;;;;10.38;69.88;93444.41;519952;28;866;-70
2024/02/25 01:05:47;;;;;;;11.15;9.30;;;;;;;10.37;69.54;93442.94;521251;28;802;-70
2024/02/25 01:06:03;;;;;;;12.73;10.00;;;;;;;10.38;70.02;93446.44;519865;28;809;-70
2024/02/25 01:06:18;;;;;;;13.88;10.63;;;;;;;10.35;70.05;93451.03;521244;28;783;-69
2024/02/25 01:06:34;;;;;;;14.97;11.47;;;;;;;10.31;69.86;93447.88;521276;28;1072;-69
2024/02/25 01:06:49;;;;;;;15.57;12.13;;;;;;;10.32;70.16;93446.63;521388;28;790;-70
2024/02/25 01:07:05;;;;;;;17.23;12.67;;;;;;;10.27;70.14;93442.00;521276;28;782;-70
2024/02/25 01:07:20;;;;;;;17.90;13.00;;;;;;;10.27;69.78;93439.22;521463;28;880;-69
2024/02/25 01:07:38;;;;;;;16.60;13.05;;;;;;;10.28;70.17;93449.00;521366;28;766;-70
2024/02/25 01:07:54;;;;;;;15.43;12.52;;;;;;;10.28;69.90;93435.22;521340;28;904;-69
2024/02/25 01:08:09;;;;;;;15.15;11.63;;;;;;;10.29;70.31;93442.19;520257;28;1796;-70
2024/02/25 01:08:24;;;;;;;15.20;11.57;;;;;;;10.28;69.82;93449.00;519164;28;1106;-69
2024/02/25 01:08:41;;;;;;;14.43;11.40;;;;;;;10.23;70.28;93444.38;520628;28;793;-69
2024/02/25 01:08:56;;;;;;;13.02;10.85;;;;;;;10.20;70.01;93441.97;521362;28;904;-69
2024/02/25 01:09:11;;;;;;;13.13;11.17;;;;;;;10.21;70.00;93446.94;521092;28;754;-69
2024/02/25 01:09:27;;;;;;;14.33;11.00;;;;;;;10.18;70.39;93445.28;521371;28;884;-69
2024/02/25 01:09:42;;;;;;;15.80;11.65;;;;;;;10.14;70.60;93452.41;521426;28;766;-69
2024/02/25 01:09:58;;;;;;;16.37;12.40;;;;;;;10.12;70.51;93446.72;520910;28;1016;-69
2024/02/25 01:10:13;;;;;;;14.77;11.43;;;;;;;10.11;70.41;93451.50;520384;28;820;-69
2024/02/25 01:10:29;;;;;;;16.93;11.50;;;;;;;10.13;70.68;93448.19;519343;28;848;-69
2024/02/25 01:10:44;;;;;;;16.67;11.90;;;;;;;10.05;70.78;93447.41;519486;28;1720;-69
2024/02/25 01:10:59;;;;;;;14.15;11.63;;;;;;;10.03;70.86;93450.69;520286;28;809;-69
2024/02/25 01:11:15;;;;;;;13.70;11.40;;;;;;;10.00;70.84;93453.81;520544;28;825;-71
2024/02/25 01:11:31;;;;;;;14.73;10.88;;;;;;;9.99;70.96;93450.31;520318;28;1057;-71
2024/02/25 01:11:46;;;;;;;14.88;10.57;;;;;;;10.02;71.17;93449.25;520721;28;860;-71
2024/02/25 01:12:02;;;;;;;12.70;10.90;;;;;;;10.04;71.00;93449.44;519421;28;786;-70
2024/02/25 01:12:18;;;;;;;12.70;10.73;;;;;;;10.06;70.60;93449.63;521075;28;1005;-71
2024/02/25 01:12:33;;;;;;;13.73;10.70;;;;;;;10.08;70.74;93449.81;521397;28;793;-70
2024/02/25 01:12:49;;;;;;;14.15;11.13;;;;;;;10.11;70.84;93451.50;521311;28;812;-70
2024/02/25 01:13:04;;;;;;;13.33;10.77;;;;;;;10.12;70.90;93446.72;521073;28;1115;-70
2024/02/25 01:13:19;;;;;;;12.60;10.23;;;;;;;10.13;70.77;93437.91;521439;28;813;-71
2024/02/25 01:13:36;;;;;;;12.53;10.37;;;;;;;9.93;70.26;93411.88;521427;28;817;-70
2024/02/25 01:13:51;;;;;;;11.95;10.02;;;;;;;10.19;70.61;93444.00;520706;28;1692;-71
2024/02/25 01:14:06;;;;;;;12.45;9.80;;;;;;;10.20;70.29;93445.47;520055;28;806;-71
2024/02/25 01:14:22;;;;;;;13.60;10.03;;;;;;;10.22;70.41;93445.66;520043;28;897;-71
2024/02/25 01:14:38;;;;;;;13.88;9.85;;;;;;;10.25;70.16;93450.09;521369;28;920;-71